sensor_id;sensor_type;location;lat;lon;timestamp;pressure;altitude;pressure_sealevel;temperature;humidity
24746;BME280;12845;52.042;6.838;2022-11-13T00:01:47;67349.69;;;5.22;100.00
24746;BME280;12845;52.042;6.838;2022-11-13T00:04:12;67354.97;;;5.22;100.00
24746;BME280;12845;52.042;6.838;2022-11-13T00:06:37;67349.88;;;5.17;100.00
24746;BME280;12845;52.042;6.838;2022-11-13T00:09:03;67348.19;;;5.15;100.00
24746;BME280;12845;52.042;6.838;2022-11-13T00:11:28;67348.56;;;5.13;100.00
24746;BME280;12845;52.042;6.838;2022-11-13T00:13:53;67345.53;;;5.08;100.00
24746;BME280;12845;52.042;6.838;2022-11-13T00:16:19;67348.00;;;5.13;100.00
24746;BME280;12845;52.042;6.838;2022-11-13T00:21:16;67370.41;;;5.31;100.00
24746;BME280;12845;52.042;6.838;2022-11-13T00:23:41;67352.69;;;5.19;100.00
24746;BME280;12845;52.042;6.838;2022-11-13T00:26:18;67351.75;;;5.14;100.00
24746;BME280;12845;52.042;6.838;2022-11-13T00:31:13;67348.19;;;5.15;100.00
24746;BME280;12845;52.042;6.838;2022-11-13T00:33:39;67341.41;;;5.09;100.00
24746;BME280;12845;52.042;6.838;2022-11-13T00:36:07;67341.41;;;5.09;100.00
24746;BME280;12845;52.042;6.838;2022-11-13T00:41:00;67339.16;;;5.07;100.00
24746;BME280;12845;52.042;6.838;2022-11-13T00:43:26;67337.44;;;5.06;100.00
24746;BME280;12845;52.042;6.838;2022-11-13T00:48:17;67331.81;;;5.01;100.00
24746;BME280;12845;52.042;6.838;2022-11-13T00:50:43;67327.09;;;4.94;100.00
24746;BME280;12845;52.042;6.838;2022-11-13T00:53:08;67322.78;;;4.92;100.00
24746;BME280;12845;52.042;6.838;2022-11-13T00:55:33;67329.00;;;4.98;100.00
24746;BME280;12845;52.042;6.838;2022-11-13T00:57:59;67325.59;;;4.95;100.00
24746;BME280;12845;52.042;6.838;2022-11-13T01:02:49;67318.06;;;4.86;100.00
24746;BME280;12845;52.042;6.838;2022-11-13T01:05:15;67319.94;;;4.90;100.00
24746;BME280;12845;52.042;6.838;2022-11-13T01:07:40;67321.06;;;4.91;100.00
24746;BME280;12845;52.042;6.838;2022-11-13T01:10:06;67318.63;;;4.93;100.00
24746;BME280;12845;52.042;6.838;2022-11-13T01:12:32;67317.50;;;4.85;100.00
24746;BME280;12845;52.042;6.838;2022-11-13T01:14:58;67310.34;;;4.81;100.00
24746;BME280;12845;52.042;6.838;2022-11-13T01:17:23;67314.09;;;4.82;100.00
24746;BME280;12845;52.042;6.838;2022-11-13T01:19:49;67297.72;;;4.74;100.00
24746;BME280;12845;52.042;6.838;2022-11-13T01:22:14;67305.06;;;4.74;100.00
24746;BME280;12845;52.042;6.838;2022-11-13T01:24:40;67301.13;;;4.70;100.00
24746;BME280;12845;52.042;6.838;2022-11-13T01:27:05;67294.53;;;4.67;100.00
24746;BME280;12845;52.042;6.838;2022-11-13T01:29:32;67295.09;;;4.67;100.00
24746;BME280;12845;52.042;6.838;2022-11-13T01:31:57;67300.19;;;4.72;100.00
24746;BME280;12845;52.042;6.838;2022-11-13T01:36:49;67296.03;;;4.66;100.00
24746;BME280;12845;52.042;6.838;2022-11-13T01:39:14;67299.25;;;4.66;100.00
24746;BME280;12845;52.042;6.838;2022-11-13T01:41:40;67289.44;;;4.62;100.00
24746;BME280;12845;52.042;6.838;2022-11-13T01:44:11;67288.69;;;4.59;100.00
24746;BME280;12845;52.042;6.838;2022-11-13T01:46:43;67294.91;;;4.65;100.00
24746;BME280;12845;52.042;6.838;2022-11-13T01:51:49;67290.00;;;4.63;100.00
24746;BME280;12845;52.042;6.838;2022-11-13T01:54:21;67288.91;;;4.62;100.00
24746;BME280;12845;52.042;6.838;2022-11-13T01:56:49;67290.59;;;4.63;100.00
24746;BME280;12845;52.042;6.838;2022-11-13T01:59:17;67292.09;;;4.62;100.00
24746;BME280;12845;52.042;6.838;2022-11-13T02:01:44;67304.31;;;4.71;100.00
24746;BME280;12845;52.042;6.838;2022-11-13T02:06:53;67297.38;;;4.69;100.00
24746;BME280;12845;52.042;6.838;2022-11-13T02:09:24;67304.13;;;4.75;100.00
24746;BME280;12845;52.042;6.838;2022-11-13T02:11:51;67311.84;;;4.80;100.00
24746;BME280;12845;52.042;6.838;2022-11-13T02:14:17;67322.19;;;4.92;100.00
24746;BME280;12845;52.042;6.838;2022-11-13T02:16:46;67332.38;;;5.01;100.00
24746;BME280;12845;52.042;6.838;2022-11-13T02:19:18;67333.88;;;5.00;100.00
24746;BME280;12845;52.042;6.838;2022-11-13T02:22:09;67325.41;;;4.92;100.00
24746;BME280;12845;52.042;6.838;2022-11-13T02:24:39;67329.94;;;5.04;100.00
24746;BME280;12845;52.042;6.838;2022-11-13T02:27:08;67337.25;;;5.03;100.00
24746;BME280;12845;52.042;6.838;2022-11-13T02:29:34;67350.25;;;5.15;100.00
24746;BME280;12845;52.042;6.838;2022-11-13T02:32:00;67347.59;;;5.15;100.00
24746;BME280;12845;52.042;6.838;2022-11-13T02:34:26;67338.59;;;5.07;100.00
24746;BME280;12845;52.042;6.838;2022-11-13T02:36:51;67339.72;;;5.08;100.00
24746;BME280;12845;52.042;6.838;2022-11-13T02:39:17;67339.16;;;5.07;100.00
24746;BME280;12845;52.042;6.838;2022-11-13T02:41:42;67336.69;;;5.03;100.00
24746;BME280;12845;52.042;6.838;2022-11-13T02:44:07;67328.41;;;4.97;100.00
24746;BME280;12845;52.042;6.838;2022-11-13T02:51:24;67336.13;;;5.02;100.00
24746;BME280;12845;52.042;6.838;2022-11-13T02:56:15;67339.16;;;5.07;100.00
24746;BME280;12845;52.042;6.838;2022-11-13T02:58:40;67334.63;;;5.03;100.00
24746;BME280;12845;52.042;6.838;2022-11-13T03:03:31;67333.50;;;5.02;100.00
24746;BME280;12845;52.042;6.838;2022-11-13T03:05:56;67332.38;;;5.01;100.00
24746;BME280;12845;52.042;6.838;2022-11-13T03:08:22;67333.50;;;5.02;100.00
24746;BME280;12845;52.042;6.838;2022-11-13T03:10:50;67336.88;;;5.05;100.00
24746;BME280;12845;52.042;6.838;2022-11-13T03:13:15;67335.00;;;5.01;100.00
24746;BME280;12845;52.042;6.838;2022-11-13T03:15:41;67336.13;;;5.02;100.00
24746;BME280;12845;52.042;6.838;2022-11-13T03:20:32;67332.94;;;5.02;100.00
24746;BME280;12845;52.042;6.838;2022-11-13T03:22:59;67334.44;;;5.01;100.00
24746;BME280;12845;52.042;6.838;2022-11-13T03:25:25;67335.00;;;5.01;100.00
24746;BME280;12845;52.042;6.838;2022-11-13T03:30:15;67333.50;;;5.02;100.00
24746;BME280;12845;52.042;6.838;2022-11-13T03:32:41;67335.19;;;5.04;100.00
24746;BME280;12845;52.042;6.838;2022-11-13T03:37:31;67335.19;;;5.04;100.00
24746;BME280;12845;52.042;6.838;2022-11-13T03:39:57;67343.66;;;5.11;100.00
24746;BME280;12845;52.042;6.838;2022-11-13T03:42:22;67342.53;;;5.10;100.00
24746;BME280;12845;52.042;6.838;2022-11-13T03:44:47;67348.56;;;5.13;100.00
24746;BME280;12845;52.042;6.838;2022-11-13T03:47:14;67345.38;;;5.13;100.00
24746;BME280;12845;52.042;6.838;2022-11-13T03:49:39;67340.28;;;5.08;100.00
24746;BME280;12845;52.042;6.838;2022-11-13T03:52:04;67344.06;;;5.09;100.00
24746;BME280;12845;52.042;6.838;2022-11-13T03:54:30;67342.91;;;5.08;100.00
24746;BME280;12845;52.042;6.838;2022-11-13T03:56:56;67347.03;;;5.14;100.00
24746;BME280;12845;52.042;6.838;2022-11-13T03:59:21;67347.81;;;5.10;100.00
24746;BME280;12845;52.042;6.838;2022-11-13T04:01:46;67338.00;;;5.06;100.00
24746;BME280;12845;52.042;6.838;2022-11-13T04:04:12;67339.72;;;5.08;100.00
24746;BME280;12845;52.042;6.838;2022-11-13T04:11:28;67326.16;;;4.95;100.00
24746;BME280;12845;52.042;6.838;2022-11-13T04:13:53;67319.94;;;4.90;100.00
24746;BME280;12845;52.042;6.838;2022-11-13T04:16:18;67314.09;;;4.82;100.00
24746;BME280;12845;52.042;6.838;2022-11-13T04:21:09;67304.69;;;4.76;100.00
24746;BME280;12845;52.042;6.838;2022-11-13T04:23:34;67305.25;;;4.77;100.00
24746;BME280;12845;52.042;6.838;2022-11-13T04:25:59;67293.22;;;4.70;100.00
24746;BME280;12845;52.042;6.838;2022-11-13T04:28:25;67308.84;;;4.75;100.00
24746;BME280;12845;52.042;6.838;2022-11-13T04:30:54;67295.47;;;4.65;100.00
24746;BME280;12845;52.042;6.838;2022-11-13T04:33:20;67282.13;;;4.56;100.00
24746;BME280;12845;52.042;6.838;2022-11-13T04:35:45;67284.19;;;4.55;100.00
24746;BME280;12845;52.042;6.838;2022-11-13T04:38:11;67280.63;;;4.49;100.00
24746;BME280;12845;52.042;6.838;2022-11-13T04:40:38;67272.53;;;4.47;100.00
24746;BME280;12845;52.042;6.838;2022-11-13T04:43:03;67273.66;;;4.48;100.00
24746;BME280;12845;52.042;6.838;2022-11-13T04:45:29;67278.19;;;4.52;100.00
24746;BME280;12845;52.042;6.838;2022-11-13T04:47:54;67264.63;;;4.40;100.00
24746;BME280;12845;52.042;6.838;2022-11-13T04:50:20;67265.00;;;4.38;100.00
24746;BME280;12845;52.042;6.838;2022-11-13T04:55:11;67265.75;;;4.41;100.00
24746;BME280;12845;52.042;6.838;2022-11-13T04:57:36;67264.44;;;4.44;100.00
24746;BME280;12845;52.042;6.838;2022-11-13T05:00:07;67272.91;;;4.45;100.00
24746;BME280;12845;52.042;6.838;2022-11-13T05:02:32;67265.75;;;4.41;100.00
24746;BME280;12845;52.042;6.838;2022-11-13T05:04:58;67269.50;;;4.42;100.00
24746;BME280;12845;52.042;6.838;2022-11-13T05:07:23;67270.25;;;4.45;100.00
24746;BME280;12845;52.042;6.838;2022-11-13T05:09:50;67271.03;;;4.41;100.00
24746;BME280;12845;52.042;6.838;2022-11-13T05:12:16;67261.78;;;4.37;100.00
24746;BME280;12845;52.042;6.838;2022-11-13T05:14:41;67255.03;;;4.31;100.00
24746;BME280;12845;52.042;6.838;2022-11-13T05:17:09;67251.63;;;4.28;100.00
24746;BME280;12845;52.042;6.838;2022-11-13T05:19:34;67246.56;;;4.23;100.00
24746;BME280;12845;52.042;6.838;2022-11-13T05:22:00;67244.88;;;4.22;100.00
24746;BME280;12845;52.042;6.838;2022-11-13T05:24:25;67221.72;;;4.01;100.00
24746;BME280;12845;52.042;6.838;2022-11-13T05:26:51;67217.78;;;3.97;100.00
24746;BME280;12845;52.042;6.838;2022-11-13T05:29:16;67209.69;;;3.88;100.00
24746;BME280;12845;52.042;6.838;2022-11-13T05:31:42;67198.63;;;3.80;100.00
24746;BME280;12845;52.042;6.838;2022-11-13T05:36:33;67196.72;;;3.76;100.00
24746;BME280;12845;52.042;6.838;2022-11-13T05:41:24;67171.91;;;3.53;100.00
24746;BME280;12845;52.042;6.838;2022-11-13T05:43:50;67163.06;;;3.48;100.00
24746;BME280;12845;52.042;6.838;2022-11-13T05:46:21;67156.09;;;3.39;100.00
24746;BME280;12845;52.042;6.838;2022-11-13T05:48:51;67151.03;;;3.34;100.00
24746;BME280;12845;52.042;6.838;2022-11-13T05:51:20;67145.03;;;3.31;100.00
24746;BME280;12845;52.042;6.838;2022-11-13T05:53:46;67154.22;;;3.35;100.00
24746;BME280;12845;52.042;6.838;2022-11-13T05:56:18;67142.22;;;3.29;100.00
24746;BME280;12845;52.042;6.838;2022-11-13T05:58:44;67137.69;;;3.25;100.00
24746;BME280;12845;52.042;6.838;2022-11-13T06:01:16;67129.81;;;3.17;100.00
24746;BME280;12845;52.042;6.838;2022-11-13T06:03:42;67136.75;;;3.19;100.00
24746;BME280;12845;52.042;6.838;2022-11-13T06:06:11;67133.94;;;3.16;100.00
24746;BME280;12845;52.042;6.838;2022-11-13T06:08:37;67126.97;;;3.15;100.00
24746;BME280;12845;52.042;6.838;2022-11-13T06:11:05;67122.47;;;3.11;100.00
24746;BME280;12845;52.042;6.838;2022-11-13T06:13:31;67116.28;;;3.05;100.00
24746;BME280;12845;52.042;6.838;2022-11-13T06:16:06;67111.75;;;3.01;100.00
24746;BME280;12845;52.042;6.838;2022-11-13T06:18:31;67103.31;;;2.93;100.00
24746;BME280;12845;52.042;6.838;2022-11-13T06:21:04;67092.03;;;2.83;100.00
24746;BME280;12845;52.042;6.838;2022-11-13T06:23:35;67091.66;;;2.78;100.00
24746;BME280;12845;52.042;6.838;2022-11-13T06:26:02;67090.53;;;2.77;100.00
24746;BME280;12845;52.042;6.838;2022-11-13T06:28:28;67094.28;;;2.85;100.00
24746;BME280;12845;52.042;6.838;2022-11-13T06:30:54;67093.72;;;2.85;100.00
24746;BME280;12845;52.042;6.838;2022-11-13T06:33:19;67098.97;;;2.85;100.00
24746;BME280;12845;52.042;6.838;2022-11-13T06:35:44;67100.50;;;2.91;100.00
24746;BME280;12845;52.042;6.838;2022-11-13T06:38:10;67090.16;;;2.79;100.00
24746;BME280;12845;52.042;6.838;2022-11-13T06:40:37;67074.00;;;2.67;100.00
24746;BME280;12845;52.042;6.838;2022-11-13T06:43:02;67084.88;;;2.72;100.00
24746;BME280;12845;52.042;6.838;2022-11-13T06:45:28;67088.66;;;2.80;100.00
24746;BME280;12845;52.042;6.838;2022-11-13T06:47:53;67095.78;;;2.84;100.00
24746;BME280;12845;52.042;6.838;2022-11-13T06:50:19;67097.09;;;2.88;100.00
24746;BME280;12845;52.042;6.838;2022-11-13T06:52:44;67085.63;;;2.75;100.00
24746;BME280;12845;52.042;6.838;2022-11-13T06:55:10;67071.00;;;2.69;100.00
24746;BME280;12845;52.042;6.838;2022-11-13T06:57:35;67080.00;;;2.70;100.00
24746;BME280;12845;52.042;6.838;2022-11-13T07:00:00;67072.31;;;2.65;100.00
24746;BME280;12845;52.042;6.838;2022-11-13T07:02:26;67083.38;;;2.73;100.00
24746;BME280;12845;52.042;6.838;2022-11-13T07:04:51;67066.66;;;2.60;100.00
24746;BME280;12845;52.042;6.838;2022-11-13T07:07:16;67064.22;;;2.56;100.00
24746;BME280;12845;52.042;6.838;2022-11-13T07:09:42;67059.34;;;2.54;100.00
24746;BME280;12845;52.042;6.838;2022-11-13T07:12:07;67060.28;;;2.52;100.00
24746;BME280;12845;52.042;6.838;2022-11-13T07:14:32;67072.88;;;2.66;100.00
24746;BME280;12845;52.042;6.838;2022-11-13T07:16:58;67071.38;;;2.60;100.00
24746;BME280;12845;52.042;6.838;2022-11-13T07:19:23;67069.84;;;2.61;100.00
24746;BME280;12845;52.042;6.838;2022-11-13T07:21:48;67067.22;;;2.61;100.00
24746;BME280;12845;52.042;6.838;2022-11-13T07:24:14;67070.81;;;2.59;100.00
24746;BME280;12845;52.042;6.838;2022-11-13T07:26:39;67069.50;;;2.63;100.00
24746;BME280;12845;52.042;6.838;2022-11-13T07:29:04;67072.13;;;2.63;100.00
24746;BME280;12845;52.042;6.838;2022-11-13T07:31:30;67074.75;;;2.63;100.00
24746;BME280;12845;52.042;6.838;2022-11-13T07:33:55;67067.78;;;2.61;100.00
24746;BME280;12845;52.042;6.838;2022-11-13T07:36:20;67081.13;;;2.71;100.00
24746;BME280;12845;52.042;6.838;2022-11-13T07:38:46;67086.59;;;2.74;100.00
24746;BME280;12845;52.042;6.838;2022-11-13T07:41:11;67087.91;;;2.77;100.00
24746;BME280;12845;52.042;6.838;2022-11-13T07:43:36;67087.53;;;2.79;100.00
24746;BME280;12845;52.042;6.838;2022-11-13T07:46:02;67092.03;;;2.83;100.00
24746;BME280;12845;52.042;6.838;2022-11-13T07:48:27;67103.31;;;2.93;100.00
24746;BME280;12845;52.042;6.838;2022-11-13T07:50:53;67117.41;;;3.06;100.00
24746;BME280;12845;52.042;6.838;2022-11-13T07:53:19;67136.00;;;3.23;100.00
24746;BME280;12845;52.042;6.838;2022-11-13T07:55:46;67154.63;;;3.40;100.00
24746;BME280;12845;52.042;6.838;2022-11-13T07:58:11;67169.81;;;3.54;100.00
24746;BME280;12845;52.042;6.838;2022-11-13T08:00:37;67182.22;;;3.65;100.00
24746;BME280;12845;52.042;6.838;2022-11-13T08:03:08;67190.16;;;3.72;100.00
24746;BME280;12845;52.042;6.838;2022-11-13T08:07:59;67214.97;;;3.95;100.00
24746;BME280;12845;52.042;6.838;2022-11-13T08:10:25;67233.00;;;4.11;100.00
24746;BME280;12845;52.042;6.838;2022-11-13T08:12:58;67258.41;;;4.34;100.00
24746;BME280;12845;52.042;6.838;2022-11-13T08:15:24;67276.28;;;4.48;100.00
24746;BME280;12845;52.042;6.838;2022-11-13T08:17:54;67292.84;;;4.65;100.00
24746;BME280;12845;52.042;6.838;2022-11-13T08:20:20;67309.03;;;4.85;100.00
24746;BME280;12845;52.042;6.838;2022-11-13T08:22:45;67334.63;;;5.03;100.00
24746;BME280;12845;52.042;6.838;2022-11-13T08:25:10;67350.44;;;5.17;100.00
24746;BME280;12845;52.042;6.838;2022-11-13T08:27:36;67367.41;;;5.33;100.00
24746;BME280;12845;52.042;6.838;2022-11-13T08:30:02;67377.94;;;5.47;100.00
24746;BME280;12845;52.042;6.838;2022-11-13T08:32:28;67404.09;;;5.66;100.00
24746;BME280;12845;52.042;6.838;2022-11-13T08:34:53;67418.25;;;5.79;100.00
24746;BME280;12845;52.042;6.838;2022-11-13T08:37:19;67425.97;;;5.83;100.00
24746;BME280;12845;52.042;6.838;2022-11-13T08:42:09;67449.91;;;6.07;100.00
24746;BME280;12845;52.042;6.838;2022-11-13T08:44:34;67464.03;;;6.20;100.00
24746;BME280;12845;52.042;6.838;2022-11-13T08:51:50;67524.91;;;6.73;100.00
24746;BME280;12845;52.042;6.838;2022-11-13T08:54:16;67540.00;;;6.84;100.00
24746;BME280;12845;52.042;6.838;2022-11-13T08:56:41;67548.69;;;6.94;100.00
24746;BME280;12845;52.042;6.838;2022-11-13T08:59:08;67567.34;;;7.11;100.00
24746;BME280;12845;52.042;6.838;2022-11-13T09:01:33;67577.72;;;7.23;99.38
24746;BME280;12845;52.042;6.838;2022-11-13T09:08:49;67634.69;;;7.72;97.04
24746;BME280;12845;52.042;6.838;2022-11-13T09:11:15;67644.50;;;7.83;95.36
24746;BME280;12845;52.042;6.838;2022-11-13T09:13:40;67657.53;;;7.95;95.18
24746;BME280;12845;52.042;6.838;2022-11-13T09:18:31;67685.28;;;8.20;93.13
24746;BME280;12845;52.042;6.838;2022-11-13T09:21:00;67690.72;;;8.30;92.76
24746;BME280;12845;52.042;6.838;2022-11-13T09:25:52;67708.50;;;8.41;91.59
24746;BME280;12845;52.042;6.838;2022-11-13T09:28:18;67727.22;;;8.58;91.92
24746;BME280;12845;52.042;6.838;2022-11-13T09:33:09;67750.44;;;8.79;90.86
24746;BME280;12845;52.042;6.838;2022-11-13T09:35:34;67762.34;;;8.90;89.98
24746;BME280;12845;52.042;6.838;2022-11-13T09:38:04;67774.00;;;9.05;89.67
24746;BME280;12845;52.042;6.838;2022-11-13T09:40:34;67776.28;;;9.07;89.24
24746;BME280;12845;52.042;6.838;2022-11-13T09:45:27;67808.78;;;9.32;88.38
24746;BME280;12845;52.042;6.838;2022-11-13T09:47:55;67824.09;;;9.45;87.32
24746;BME280;12845;52.042;6.838;2022-11-13T09:50:24;67830.34;;;9.51;86.94
24746;BME280;12845;52.042;6.838;2022-11-13T10:02:57;67875.66;;;9.99;85.31
24746;BME280;12845;52.042;6.838;2022-11-13T10:08:27;67896.47;;;10.15;84.88
24746;BME280;12845;52.042;6.838;2022-11-13T10:16:31;67936.19;;;10.51;82.75
24746;BME280;12845;52.042;6.838;2022-11-13T10:21:42;67965.13;;;10.77;82.19
24746;BME280;12845;52.042;6.838;2022-11-13T10:26:40;67976.25;;;10.92;81.10
24746;BME280;12845;52.042;6.838;2022-11-13T10:29:14;67988.97;;;10.99;80.42
24746;BME280;12845;52.042;6.838;2022-11-13T10:31:51;68008.84;;;11.17;80.16
24746;BME280;12845;52.042;6.838;2022-11-13T10:34:17;67987.06;;;11.02;79.19
24746;BME280;12845;52.042;6.838;2022-11-13T10:39:30;67995.22;;;11.04;79.97
24746;BME280;12845;52.042;6.838;2022-11-13T10:41:55;68007.13;;;11.15;79.42
24746;BME280;12845;52.042;6.838;2022-11-13T10:44:24;68021.91;;;11.28;79.03
24746;BME280;12845;52.042;6.838;2022-11-13T10:46:49;68037.22;;;11.42;78.82
24746;BME280;12845;52.042;6.838;2022-11-13T10:54:30;68087.44;;;11.83;78.62
24746;BME280;12845;52.042;6.838;2022-11-13T10:57:17;68107.88;;;12.01;77.44
24746;BME280;12845;52.042;6.838;2022-11-13T10:59:43;68125.50;;;12.17;76.54
24746;BME280;12845;52.042;6.838;2022-11-13T11:02:24;68127.00;;;12.23;75.73
24746;BME280;12845;52.042;6.838;2022-11-13T11:05:03;68123.00;;;12.19;76.40
24746;BME280;12845;52.042;6.838;2022-11-13T11:07:29;68134.94;;;12.30;75.09
24746;BME280;12845;52.042;6.838;2022-11-13T11:09:58;68140.63;;;12.35;75.14
24746;BME280;12845;52.042;6.838;2022-11-13T11:12:24;68158.81;;;12.52;75.72
24746;BME280;12845;52.042;6.838;2022-11-13T11:22:43;68191.19;;;12.81;75.22
24746;BME280;12845;52.042;6.838;2022-11-13T11:25:17;68204.84;;;12.93;74.16
24746;BME280;12845;52.042;6.838;2022-11-13T11:30:24;68231.16;;;13.19;74.67
24746;BME280;12845;52.042;6.838;2022-11-13T11:33:00;68246.53;;;13.33;74.28
24746;BME280;12845;52.042;6.838;2022-11-13T11:35:53;68270.81;;;13.52;74.66
24746;BME280;12845;52.042;6.838;2022-11-13T11:41:19;68300.97;;;13.80;72.63
24746;BME280;12845;52.042;6.838;2022-11-13T11:46:21;68319.75;;;13.96;71.46
24746;BME280;12845;52.042;6.838;2022-11-13T11:48:48;68325.44;;;14.02;71.43
24746;BME280;12845;52.042;6.838;2022-11-13T11:56:51;68345.34;;;14.19;71.24
24746;BME280;12845;52.042;6.838;2022-11-13T12:07:40;68386.66;;;14.61;70.78
24746;BME280;12845;52.042;6.838;2022-11-13T12:10:24;68404.88;;;14.78;70.25
24746;BME280;12845;52.042;6.838;2022-11-13T12:15:37;68429.03;;;14.95;68.96
24746;BME280;12845;52.042;6.838;2022-11-13T12:26:01;68444.41;;;15.08;69.11
24746;BME280;12845;52.042;6.838;2022-11-13T12:41:48;68523.03;;;15.79;65.35
24746;BME280;12845;52.042;6.838;2022-11-13T12:44:26;68525.88;;;15.82;65.06
24746;BME280;12845;52.042;6.838;2022-11-13T12:46:55;68522.63;;;15.81;65.96
24746;BME280;12845;52.042;6.838;2022-11-13T12:52:03;68537.84;;;15.92;62.99
24746;BME280;12845;52.042;6.838;2022-11-13T12:54:34;68544.28;;;16.00;61.38
24746;BME280;12845;52.042;6.838;2022-11-13T12:59:43;68560.25;;;16.15;61.40
24746;BME280;12845;52.042;6.838;2022-11-13T13:10:29;68576.75;;;16.30;62.76
24746;BME280;12845;52.042;6.838;2022-11-13T13:13:12;68597.69;;;16.46;63.12
24746;BME280;12845;52.042;6.838;2022-11-13T13:15:43;68594.03;;;16.47;62.27
24746;BME280;12845;52.042;6.838;2022-11-13T13:20:57;68604.13;;;16.54;58.71
24746;BME280;12845;52.042;6.838;2022-11-13T13:23:31;68620.66;;;16.69;59.14
24746;BME280;12845;52.042;6.838;2022-11-13T13:28:40;68623.53;;;16.72;62.04
24746;BME280;12845;52.042;6.838;2022-11-13T13:31:15;68624.47;;;16.70;61.68
24746;BME280;12845;52.042;6.838;2022-11-13T13:36:41;68630.94;;;16.78;62.21
24746;BME280;12845;52.042;6.838;2022-11-13T13:47:10;68631.69;;;16.81;62.01
24746;BME280;12845;52.042;6.838;2022-11-13T13:49:38;68634.75;;;16.79;60.37
24746;BME280;12845;52.042;6.838;2022-11-13T13:52:03;68628.66;;;16.76;60.03
24746;BME280;12845;52.042;6.838;2022-11-13T13:54:31;68625.06;;;16.70;59.16
24746;BME280;12845;52.042;6.838;2022-11-13T13:56:57;68617.97;;;16.69;61.02
24746;BME280;12845;52.042;6.838;2022-11-13T13:59:32;68619.34;;;16.65;61.51
24746;BME280;12845;52.042;6.838;2022-11-13T14:02:03;68604.53;;;16.52;61.22
24746;BME280;12845;52.042;6.838;2022-11-13T14:04:43;68598.84;;;16.47;61.36
24746;BME280;12845;52.042;6.838;2022-11-13T14:07:27;68594.84;;;16.43;64.75
24746;BME280;12845;52.042;6.838;2022-11-13T14:10:14;68585.72;;;16.35;65.05
24746;BME280;12845;52.042;6.838;2022-11-13T14:12:44;68577.72;;;16.28;64.45
24746;BME280;12845;52.042;6.838;2022-11-13T14:18:02;68564.06;;;16.16;66.29
24746;BME280;12845;52.042;6.838;2022-11-13T14:20:28;68557.94;;;16.13;67.75
24746;BME280;12845;52.042;6.838;2022-11-13T14:22:54;68543.28;;;16.02;65.40
24746;BME280;12845;52.042;6.838;2022-11-13T14:25:26;68535.16;;;15.92;64.08
24746;BME280;12845;52.042;6.838;2022-11-13T14:27:52;68523.38;;;15.84;67.16
24746;BME280;12845;52.042;6.838;2022-11-13T14:30:23;68511.81;;;15.71;64.12
24746;BME280;12845;52.042;6.838;2022-11-13T14:32:49;68495.09;;;15.54;64.21
24746;BME280;12845;52.042;6.838;2022-11-13T14:40:19;68465.63;;;15.30;62.75
24746;BME280;12845;52.042;6.838;2022-11-13T14:42:48;68462.06;;;15.24;65.52
24746;BME280;12845;52.042;6.838;2022-11-13T14:45:19;68433.75;;;15.01;64.04
24746;BME280;12845;52.042;6.838;2022-11-13T14:50:29;68405.44;;;14.78;64.25
24746;BME280;12845;52.042;6.838;2022-11-13T14:55:31;68383.25;;;14.58;66.60
24746;BME280;12845;52.042;6.838;2022-11-13T14:57:57;68374.94;;;14.46;64.94
24746;BME280;12845;52.042;6.838;2022-11-13T15:02:56;68364.13;;;14.36;65.81
24746;BME280;12845;52.042;6.838;2022-11-13T15:05:22;68356.31;;;14.32;67.85
24746;BME280;12845;52.042;6.838;2022-11-13T15:07:48;68345.50;;;14.22;69.50
24746;BME280;12845;52.042;6.838;2022-11-13T15:10:18;68336.81;;;14.12;69.63
24746;BME280;12845;52.042;6.838;2022-11-13T15:12:44;68328.28;;;14.04;69.14
24746;BME280;12845;52.042;6.838;2022-11-13T15:15:17;68312.34;;;13.90;71.06
24746;BME280;12845;52.042;6.838;2022-11-13T15:20:21;68282.34;;;13.65;73.84
24746;BME280;12845;52.042;6.838;2022-11-13T15:22:50;68265.88;;;13.50;74.23
24746;BME280;12845;52.042;6.838;2022-11-13T15:27:42;68244.09;;;13.28;76.81
24746;BME280;12845;52.042;6.838;2022-11-13T15:30:09;68227.00;;;13.13;76.71
24746;BME280;12845;52.042;6.838;2022-11-13T15:35:00;68203.88;;;12.95;76.72
24746;BME280;12845;52.042;6.838;2022-11-13T15:44:42;68142.31;;;12.37;81.23
24746;BME280;12845;52.042;6.838;2022-11-13T15:47:32;68135.72;;;12.26;81.49
24746;BME280;12845;52.042;6.838;2022-11-13T15:49:59;68111.09;;;12.09;82.89
24746;BME280;12845;52.042;6.838;2022-11-13T15:52:26;68105.41;;;12.04;83.63
24746;BME280;12845;52.042;6.838;2022-11-13T15:54:53;68095.38;;;11.90;83.57
24746;BME280;12845;52.042;6.838;2022-11-13T15:57:25;68082.09;;;11.83;83.92
24746;BME280;12845;52.042;6.838;2022-11-13T15:59:50;68073.00;;;11.74;84.50
24746;BME280;12845;52.042;6.838;2022-11-13T16:02:16;68069.25;;;11.66;84.70
24746;BME280;12845;52.042;6.838;2022-11-13T16:04:42;68050.50;;;11.49;84.54
24746;BME280;12845;52.042;6.838;2022-11-13T16:09:51;68015.66;;;11.23;87.06
24746;BME280;12845;52.042;6.838;2022-11-13T16:12:16;67998.63;;;11.07;88.22
24746;BME280;12845;52.042;6.838;2022-11-13T16:14:42;67995.22;;;11.04;88.92
24746;BME280;12845;52.042;6.838;2022-11-13T16:19:38;67972.19;;;10.79;89.75
24746;BME280;12845;52.042;6.838;2022-11-13T16:22:17;67968.19;;;10.75;90.14
24746;BME280;12845;52.042;6.838;2022-11-13T16:27:12;67947.16;;;10.64;90.61
24746;BME280;12845;52.042;6.838;2022-11-13T16:34:28;67919.75;;;10.36;91.37
24746;BME280;12845;52.042;6.838;2022-11-13T16:36:54;67919.97;;;10.32;91.69
24746;BME280;12845;52.042;6.838;2022-11-13T16:41:44;67919.97;;;10.32;90.81
24746;BME280;12845;52.042;6.838;2022-11-13T16:44:10;67916.56;;;10.29;90.38
24746;BME280;12845;52.042;6.838;2022-11-13T16:54:00;67902.94;;;10.16;89.75
24746;BME280;12845;52.042;6.838;2022-11-13T16:58:55;67882.84;;;10.03;89.11
24746;BME280;12845;52.042;6.838;2022-11-13T17:08:50;67870.38;;;9.92;90.02
24746;BME280;12845;52.042;6.838;2022-11-13T17:11:16;67873.44;;;9.90;89.25
24746;BME280;12845;52.042;6.838;2022-11-13T17:13:42;67870.03;;;9.87;89.71
24746;BME280;12845;52.042;6.838;2022-11-13T17:16:10;67859.63;;;9.82;90.08